New Church, Virginia
Current Conditions -  °F | °C
As of 12:54 PM on Thursday 27 Nov 2014 (Local Time) from KWAL Reporting Station
Overcast Overcast  
Wind Chill: 41°   Ceiling: 4500
Heat Index: 45°   Visibility: 10mi
Dew Point: 36°   Wind: 8mph
Humidity: 71%   Direction: 310°NW
Pressure: 30.01"   Gusts: NA
Location:  37.98°N, 75.53°W
Report Text: KWAL 271754Z AUTO 31007KT 10SM SCT024 BKN045 OVC070 07/02 A3001 RMK AO2 SLP160 T00720022 10078 20022 58015
Loading
Personal Weather Stations






























Interactive Weather Map New forecast layout! Learn more

10-Day Weather Forecast

Advertisements
Track Severe Weather on mobile